Flight Track Log - Related Links

Times and Time Zones

All times are in EDT time to prevent confusion due to time zone crossing. See the N560GS flight status page for this flight to view local times or setup timezone preferences in your user account.

Time Position Orientation Groundspeed Altitude Reporting Facility
EDT Latitude Longitude Course Direction KTS MPH feet Rate Location/Type
Tue 09:17:39 AM 29.1722 -81.0756 246° West 173 199 500  Level Jacksonville Center
Tue 09:18:16 AM 29.1561 -81.1164 246° West 217 250 2,100 3,184 Climbing Jacksonville Center
Tue 09:19:17 AM 29.1383 -81.1881 254° West 253 291 5,700 3,353 Climbing Jacksonville Center
Tue 09:20:32 AM 29.2081 -81.2533 321° Northwest 262 302 9,700 2,667 Climbing Jacksonville Center
Tue 09:21:32 AM 29.2753 -81.2928 333° Northwest 267 307 11,700 2,250 Climbing Jacksonville Center
Tue 09:22:32 AM 29.3531 -81.3297 338° Northwest 279 321 14,200 2,500 Climbing Jacksonville Center
Tue 09:23:32 AM 29.4286 -81.3714 334° Northwest 289 333 16,700 2,500 Climbing Jacksonville Center
Tue 09:24:32 AM 29.5022 -81.4156 332° Northwest 294 338 19,200 1,650 Climbing Jacksonville Center
Tue 09:25:32 AM 29.5881 -81.4428 345° North 302 348 20,000 500 Climbing Jacksonville Center
Tue 09:26:32 AM 29.6906 -81.4486 357° North 338 389 20,200 1,100 Climbing Jacksonville Center
Tue 09:27:32 AM 29.7908 -81.4567 356° North 352 405 22,200 1,950 Climbing Jacksonville Center
Tue 09:28:32 AM 29.8869 -81.4694 353° North 352 405 24,100 1,950 Climbing Jacksonville Center
Tue 09:29:32 AM 29.9831 -81.4778 356° North 352 405 26,100 1,950 Climbing Jacksonville Center
Tue 09:30:32 AM 30.0750 -81.4861 356° North 342 394 28,000 1,450 Climbing Jacksonville Center
Tue 09:31:32 AM 30.1650 -81.4944 355° North 332 382 29,000 1,050 Climbing Jacksonville Center
Tue 09:32:32 AM 30.2672 -81.5025 356° North 343 395 30,100 1,550 Climbing Jacksonville Center
Tue 09:33:32 AM 30.3614 -81.5275 347° North 348 400 32,100 1,450 Climbing Jacksonville Center
Tue 09:34:32 AM 30.4392 -81.5650 337° Northwest 348 400 33,000 450 Climbing Jacksonville Center
Tue 09:35:32 AM 30.5356 -81.6119 337° Northwest 356 410 33,000 550 Level Jacksonville Center
Tue 09:36:32 AM 30.6403 -81.6369 348° North 370 426 34,100 1,450 Climbing Jacksonville Center
Tue 09:37:32 AM 30.7406 -81.6503 353° North 370 426 35,900 950 Climbing Jacksonville Center
Tue 09:38:32 AM 30.8431 -81.6633 354° North 365 420 36,000 450 Climbing Jacksonville Center
Tue 09:39:32 AM 30.9497 -81.6692 357° North 370 426 36,800 1,150 Climbing Jacksonville Center
Tue 09:40:32 AM 31.0475 -81.6317 18° North 365 420 38,300 1,500 Climbing Jacksonville Center
Tue 09:41:32 AM 31.1431 -81.6014 15° North 359 413 39,800 1,300 Climbing Jacksonville Center
Tue 09:42:32 AM 31.2306 -81.5661 19° North 338 389 40,900 600 Climbing Jacksonville Center
Tue 09:43:32 AM 31.3219 -81.5331 17° North 338 389 41,000 50 Climbing Jacksonville Center
Tue 09:44:32 AM 31.4239 -81.4950 18° North 348 400 41,000  Level Jacksonville Center
Tue 09:45:32 AM 31.5258 -81.4569 18° North 368 423 41,000  Level Jacksonville Center
Tue 09:46:32 AM 31.6172 -81.4264 16° North 378 435 41,000  Level Jacksonville Center
Tue 09:47:32 AM 31.7317 -81.3831 18° North 378 435 41,000  Level Jacksonville Center
Tue 09:48:32 AM 31.8356 -81.3447 17° North 378 435 41,000  Level Jacksonville Center
Tue 09:49:32 AM 31.9311 -81.3064 19° North 387 445 41,000  Level Jacksonville Center
Tue 09:50:32 AM 32.0414 -81.2700 16° North 392 451 41,000  Level Jacksonville Center
Tue 09:51:32 AM 32.1472 -81.2339 16° North 397 457 41,000  Level Jacksonville Center
Tue 09:52:32 AM 32.2533 -81.1928 18° North 397 457 41,000  Level Jacksonville Center
Tue 09:53:32 AM 32.3614 -81.1536 17° North 397 457 41,000  Level Jacksonville Center
Tue 09:54:32 AM 32.4839 -81.1094 17° North 407 468 41,000  Level Jacksonville Center
Tue 09:55:32 AM 32.5897 -81.0706 17° North 401 461 41,000  Level Jacksonville Center
Tue 09:56:32 AM 32.6853 -81.0339 18° North 396 456 41,000  Level Jacksonville Center
Tue 09:57:32 AM 32.7933 -80.9947 17° North 396 456 41,000  Level Jacksonville Center
Tue 09:58:32 AM 32.9117 -80.9525 17° North 396 456 41,000  Level Jacksonville Center
Tue 09:59:32 AM 33.0194 -80.9106 18° North 396 456 41,000  Level Jacksonville Center
Tue 10:00:32 AM 33.1272 -80.8711 17° North 396 456 41,000  Level Jacksonville Center
Tue 10:01:32 AM 33.2372 -80.8314 17° North 396 456 41,000  Level Jacksonville Center
Tue 10:02:32 AM 33.3453 -80.7892 18° North 396 456 41,000  Level Jacksonville Center
Tue 10:03:32 AM 33.4550 -80.7467 18° North 396 456 41,000  Level Jacksonville Center
Tue 10:04:32 AM 33.5628 -80.7067 17° North 396 456 41,000  Level Jacksonville Center
Tue 10:05:32 AM 33.6728 -80.6639 18° North 396 456 41,000  Level Jacksonville Center
Tue 10:06:32 AM 33.7806 -80.6214 18° North 396 456 41,000  Level Jacksonville Center
Tue 10:07:32 AM 33.8883 -80.5808 17° North 396 456 41,000  Level Jacksonville Center
Tue 10:08:32 AM 33.9981 -80.5406 17° North 401 461 41,000 -667 Level Jacksonville Center
Tue 10:10:32 AM 34.2033 -80.4572 19° North 408 470 39,000 -1,100 Descending Atlanta Center
Tue 10:11:32 AM 34.3150 -80.4197 16° North 419 482 37,700 -1,000 Descending Atlanta Center
Tue 10:12:32 AM 34.4283 -80.3722 19° North 419 482 37,000 -350 Descending Atlanta Center
Tue 10:13:32 AM 34.5378 -80.3319 17° North 419 482 37,000 -1,000 Level Atlanta Center
Tue 10:14:32 AM 34.6550 -80.2814 20° North 419 482 35,000 -1,000 Descending Atlanta Center
Tue 10:15:32 AM 34.7706 -80.2383 17° North 436 502 35,000  Level Atlanta Center
Tue 10:16:32 AM 34.9006 -80.1867 18° North 436 502 35,000 -450 Level Atlanta Center
Tue 10:17:32 AM 35.0181 -80.1408 18° North 436 502 34,100 -1,100 Descending Atlanta Center
Tue 10:18:32 AM 35.1311 -80.0947 18° North 430 495 32,800 -1,250 Descending Atlanta Center
Tue 10:19:32 AM 35.2486 -80.0486 18° North 430 495 31,600 -1,200 Descending Atlanta Center
Tue 10:20:32 AM 35.3661 -80.0019 18° North 444 511 30,400 -1,250 Descending Atlanta Center
Tue 10:21:32 AM 35.4753 -79.9583 18° North 444 511 29,100 -1,400 Descending Atlanta Center
Tue 10:22:32 AM 35.5967 -79.9089 18° North 449 517 27,600 -1,425 Descending Atlanta Center
Tue 10:24:12 AM 35.7889 -79.8325 18° North 450 518 25,300 -1,416 Descending Washington Center
Tue 10:25:13 AM 35.9008 -79.7897 17° North 438 504 23,800 -1,587 Descending Washington Center
Tue 10:26:13 AM 36.0239 -79.7372 19° North 427 491 22,100 -1,576 Descending Washington Center
Tue 10:27:11 AM 36.1211 -79.6986 18° North 410 472 20,700 -1,513 Descending Washington Center
Tue 10:28:12 AM 36.2353 -79.6506 19° North 393 452 19,100 -1,131 Descending Washington Center
Tue 10:29:13 AM 36.3264 -79.6139 18° North 388 447 18,400 -1,190 Descending Washington Center
Tue 10:30:13 AM 36.4406 -79.5681 18° North 388 447 16,700 -1,736 Descending Washington Center
Tue 10:31:14 AM 36.5378 -79.5267 19° North 383 441 14,900 -1,831 Descending Washington Center
Tue 10:32:11 AM 36.6244 -79.4922 18° North 372 428 13,100 -1,780 Descending Washington Center
Tue 10:33:12 AM 36.7197 -79.4528 18° North 367 422 11,400 -1,525 Descending Washington Center
Tue 10:34:13 AM 36.8128 -79.4161 18° North 356 410 10,000 -1,377 Descending Washington Center

Login

Don't have an account? Register now (free) for customized features, flight alerts, and more!